sensor_id;sensor_type;location;lat;lon;timestamp;P1;durP1;ratioP1;P2;durP2;ratioP2
34585;SDS011;20816;50.950;11.108;2023-03-03T00:02:18;24.30;;;10.67;;
34585;SDS011;20816;50.950;11.108;2023-03-03T00:04:44;33.30;;;12.50;;
34585;SDS011;20816;50.950;11.108;2023-03-03T00:07:11;28.60;;;12.57;;
34585;SDS011;20816;50.950;11.108;2023-03-03T00:09:40;29.50;;;12.77;;
34585;SDS011;20816;50.950;11.108;2023-03-03T00:12:33;27.17;;;11.20;;
34585;SDS011;20816;50.950;11.108;2023-03-03T00:15:17;35.43;;;12.07;;
34585;SDS011;20816;50.950;11.108;2023-03-03T00:17:45;33.83;;;12.37;;
34585;SDS011;20816;50.950;11.108;2023-03-03T00:20:24;36.60;;;12.10;;
34585;SDS011;20816;50.950;11.108;2023-03-03T00:22:54;26.97;;;11.93;;
34585;SDS011;20816;50.950;11.108;2023-03-03T00:28:05;27.67;;;11.33;;
34585;SDS011;20816;50.950;11.108;2023-03-03T00:30:41;24.60;;;11.43;;
34585;SDS011;20816;50.950;11.108;2023-03-03T00:33:13;29.17;;;12.93;;
34585;SDS011;20816;50.950;11.108;2023-03-03T00:35:54;31.67;;;12.87;;
34585;SDS011;20816;50.950;11.108;2023-03-03T00:38:51;25.73;;;10.43;;
34585;SDS011;20816;50.950;11.108;2023-03-03T00:41:19;29.93;;;12.43;;
34585;SDS011;20816;50.950;11.108;2023-03-03T00:43:52;31.90;;;12.37;;
34585;SDS011;20816;50.950;11.108;2023-03-03T00:46:24;32.93;;;12.30;;
34585;SDS011;20816;50.950;11.108;2023-03-03T00:48:50;30.37;;;12.17;;
34585;SDS011;20816;50.950;11.108;2023-03-03T00:53:54;26.83;;;12.17;;
34585;SDS011;20816;50.950;11.108;2023-03-03T00:56:27;30.23;;;11.47;;
34585;SDS011;20816;50.950;11.108;2023-03-03T00:58:54;25.37;;;10.53;;
34585;SDS011;20816;50.950;11.108;2023-03-03T01:01:20;31.97;;;11.87;;
34585;SDS011;20816;50.950;11.108;2023-03-03T01:03:47;27.00;;;12.83;;
34585;SDS011;20816;50.950;11.108;2023-03-03T01:06:13;34.97;;;13.20;;
34585;SDS011;20816;50.950;11.108;2023-03-03T01:08:41;33.40;;;11.80;;
34585;SDS011;20816;50.950;11.108;2023-03-03T01:11:12;28.27;;;11.43;;
34585;SDS011;20816;50.950;11.108;2023-03-03T01:13:43;28.90;;;12.47;;
34585;SDS011;20816;50.950;11.108;2023-03-03T01:16:15;43.90;;;14.73;;
34585;SDS011;20816;50.950;11.108;2023-03-03T01:18:51;27.33;;;11.87;;
34585;SDS011;20816;50.950;11.108;2023-03-03T01:21:17;27.90;;;11.33;;
34585;SDS011;20816;50.950;11.108;2023-03-03T01:23:44;24.60;;;10.17;;
34585;SDS011;20816;50.950;11.108;2023-03-03T01:26:16;34.80;;;12.37;;
34585;SDS011;20816;50.950;11.108;2023-03-03T01:28:46;26.63;;;10.87;;
34585;SDS011;20816;50.950;11.108;2023-03-03T01:31:13;24.77;;;11.47;;
34585;SDS011;20816;50.950;11.108;2023-03-03T01:33:40;20.40;;;9.47;;
34585;SDS011;20816;50.950;11.108;2023-03-03T01:36:27;33.57;;;13.57;;
34585;SDS011;20816;50.950;11.108;2023-03-03T01:38:54;35.33;;;14.43;;
34585;SDS011;20816;50.950;11.108;2023-03-03T01:41:20;27.00;;;11.60;;
34585;SDS011;20816;50.950;11.108;2023-03-03T01:43:55;27.47;;;10.57;;
34585;SDS011;20816;50.950;11.108;2023-03-03T01:46:28;38.57;;;13.43;;
34585;SDS011;20816;50.950;11.108;2023-03-03T01:48:57;38.70;;;10.87;;
34585;SDS011;20816;50.950;11.108;2023-03-03T01:51:33;34.63;;;12.63;;
34585;SDS011;20816;50.950;11.108;2023-03-03T01:54:09;32.73;;;14.07;;
34585;SDS011;20816;50.950;11.108;2023-03-03T01:56:40;30.70;;;10.77;;
34585;SDS011;20816;50.950;11.108;2023-03-03T01:59:22;22.27;;;11.07;;
34585;SDS011;20816;50.950;11.108;2023-03-03T02:01:54;21.50;;;9.93;;
34585;SDS011;20816;50.950;11.108;2023-03-03T02:04:21;32.00;;;12.00;;
34585;SDS011;20816;50.950;11.108;2023-03-03T02:07:09;22.53;;;9.60;;
34585;SDS011;20816;50.950;11.108;2023-03-03T02:12:27;29.10;;;11.80;;
34585;SDS011;20816;50.950;11.108;2023-03-03T02:14:58;37.53;;;12.77;;
34585;SDS011;20816;50.950;11.108;2023-03-03T02:17:42;22.47;;;9.93;;
34585;SDS011;20816;50.950;11.108;2023-03-03T02:20:11;23.93;;;11.27;;
34585;SDS011;20816;50.950;11.108;2023-03-03T02:22:52;24.10;;;10.97;;
34585;SDS011;20816;50.950;11.108;2023-03-03T02:25:36;22.40;;;8.43;;
34585;SDS011;20816;50.950;11.108;2023-03-03T02:28:18;21.70;;;9.60;;
34585;SDS011;20816;50.950;11.108;2023-03-03T02:30:46;34.47;;;10.80;;
34585;SDS011;20816;50.950;11.108;2023-03-03T02:33:12;29.20;;;9.77;;
34585;SDS011;20816;50.950;11.108;2023-03-03T02:35:39;25.30;;;11.30;;
34585;SDS011;20816;50.950;11.108;2023-03-03T02:40:48;19.97;;;10.80;;
34585;SDS011;20816;50.950;11.108;2023-03-03T02:43:50;35.70;;;11.07;;
34585;SDS011;20816;50.950;11.108;2023-03-03T02:46:26;20.93;;;9.10;;
34585;SDS011;20816;50.950;11.108;2023-03-03T02:48:54;34.57;;;10.90;;
34585;SDS011;20816;50.950;11.108;2023-03-03T02:51:21;21.30;;;10.07;;
34585;SDS011;20816;50.950;11.108;2023-03-03T02:53:47;22.83;;;10.77;;
34585;SDS011;20816;50.950;11.108;2023-03-03T02:56:19;31.90;;;12.87;;
34585;SDS011;20816;50.950;11.108;2023-03-03T02:58:46;28.43;;;9.33;;
34585;SDS011;20816;50.950;11.108;2023-03-03T03:01:16;30.20;;;11.43;;
34585;SDS011;20816;50.950;11.108;2023-03-03T03:03:43;25.00;;;9.30;;
34585;SDS011;20816;50.950;11.108;2023-03-03T03:06:09;18.90;;;9.30;;
34585;SDS011;20816;50.950;11.108;2023-03-03T03:08:36;31.63;;;9.73;;
34585;SDS011;20816;50.950;11.108;2023-03-03T03:11:04;29.40;;;11.13;;
34585;SDS011;20816;50.950;11.108;2023-03-03T03:13:34;35.37;;;9.07;;
34585;SDS011;20816;50.950;11.108;2023-03-03T03:16:01;24.87;;;11.57;;
34585;SDS011;20816;50.950;11.108;2023-03-03T03:18:28;22.27;;;9.57;;
34585;SDS011;20816;50.950;11.108;2023-03-03T03:20:55;27.40;;;8.50;;
34585;SDS011;20816;50.950;11.108;2023-03-03T03:23:29;18.97;;;8.60;;
34585;SDS011;20816;50.950;11.108;2023-03-03T03:26:01;19.30;;;7.90;;
34585;SDS011;20816;50.950;11.108;2023-03-03T03:28:28;26.57;;;10.47;;
34585;SDS011;20816;50.950;11.108;2023-03-03T03:30:54;17.70;;;7.83;;
34585;SDS011;20816;50.950;11.108;2023-03-03T03:33:21;21.27;;;9.07;;
34585;SDS011;20816;50.950;11.108;2023-03-03T03:35:50;32.87;;;9.90;;
34585;SDS011;20816;50.950;11.108;2023-03-03T03:38:22;21.33;;;9.57;;
34585;SDS011;20816;50.950;11.108;2023-03-03T03:40:49;14.27;;;7.47;;
34585;SDS011;20816;50.950;11.108;2023-03-03T03:43:16;25.00;;;9.37;;
34585;SDS011;20816;50.950;11.108;2023-03-03T03:45:42;21.60;;;8.43;;
34585;SDS011;20816;50.950;11.108;2023-03-03T03:48:12;22.63;;;9.93;;
34585;SDS011;20816;50.950;11.108;2023-03-03T03:50:43;27.10;;;8.30;;
34585;SDS011;20816;50.950;11.108;2023-03-03T03:53:10;18.63;;;9.70;;
34585;SDS011;20816;50.950;11.108;2023-03-03T03:55:37;18.90;;;9.13;;
34585;SDS011;20816;50.950;11.108;2023-03-03T03:58:07;22.70;;;8.37;;
34585;SDS011;20816;50.950;11.108;2023-03-03T04:00:34;26.73;;;9.80;;
34585;SDS011;20816;50.950;11.108;2023-03-03T04:03:03;24.43;;;9.47;;
34585;SDS011;20816;50.950;11.108;2023-03-03T04:05:29;16.17;;;7.93;;
34585;SDS011;20816;50.950;11.108;2023-03-03T04:07:56;20.77;;;7.60;;
34585;SDS011;20816;50.950;11.108;2023-03-03T04:10:22;22.30;;;8.33;;
34585;SDS011;20816;50.950;11.108;2023-03-03T04:13:01;20.93;;;9.47;;
34585;SDS011;20816;50.950;11.108;2023-03-03T04:15:27;29.80;;;8.37;;
34585;SDS011;20816;50.950;11.108;2023-03-03T04:17:54;20.07;;;8.23;;
34585;SDS011;20816;50.950;11.108;2023-03-03T04:20:20;24.63;;;8.43;;
34585;SDS011;20816;50.950;11.108;2023-03-03T04:22:47;21.47;;;9.23;;
34585;SDS011;20816;50.950;11.108;2023-03-03T04:25:14;31.07;;;9.30;;
34585;SDS011;20816;50.950;11.108;2023-03-03T04:27:51;29.20;;;9.67;;
34585;SDS011;20816;50.950;11.108;2023-03-03T04:30:18;29.87;;;10.07;;
34585;SDS011;20816;50.950;11.108;2023-03-03T04:32:44;32.37;;;10.10;;
34585;SDS011;20816;50.950;11.108;2023-03-03T04:35:18;39.30;;;9.97;;
34585;SDS011;20816;50.950;11.108;2023-03-03T04:37:47;18.90;;;8.80;;
34585;SDS011;20816;50.950;11.108;2023-03-03T04:40:14;29.00;;;10.70;;
34585;SDS011;20816;50.950;11.108;2023-03-03T04:42:41;19.10;;;8.57;;
34585;SDS011;20816;50.950;11.108;2023-03-03T04:45:11;19.30;;;8.03;;
34585;SDS011;20816;50.950;11.108;2023-03-03T04:47:40;17.17;;;7.30;;
34585;SDS011;20816;50.950;11.108;2023-03-03T04:50:11;30.33;;;8.20;;
34585;SDS011;20816;50.950;11.108;2023-03-03T04:52:38;24.30;;;7.73;;
34585;SDS011;20816;50.950;11.108;2023-03-03T04:55:05;21.83;;;8.70;;
34585;SDS011;20816;50.950;11.108;2023-03-03T04:57:38;13.50;;;7.10;;
34585;SDS011;20816;50.950;11.108;2023-03-03T05:00:14;29.37;;;8.50;;
34585;SDS011;20816;50.950;11.108;2023-03-03T05:02:41;22.17;;;9.90;;
34585;SDS011;20816;50.950;11.108;2023-03-03T05:05:15;16.03;;;7.93;;
34585;SDS011;20816;50.950;11.108;2023-03-03T05:07:52;14.77;;;6.50;;
34585;SDS011;20816;50.950;11.108;2023-03-03T05:10:19;26.97;;;8.40;;
34585;SDS011;20816;50.950;11.108;2023-03-03T05:12:46;21.00;;;8.17;;
34585;SDS011;20816;50.950;11.108;2023-03-03T05:15:22;24.50;;;7.90;;
34585;SDS011;20816;50.950;11.108;2023-03-03T05:17:51;15.13;;;7.40;;
34585;SDS011;20816;50.950;11.108;2023-03-03T05:20:18;14.60;;;6.53;;
34585;SDS011;20816;50.950;11.108;2023-03-03T05:22:45;25.43;;;7.77;;
34585;SDS011;20816;50.950;11.108;2023-03-03T05:25:32;15.43;;;6.87;;
34585;SDS011;20816;50.950;11.108;2023-03-03T05:27:59;14.40;;;6.83;;
34585;SDS011;20816;50.950;11.108;2023-03-03T05:30:35;20.57;;;7.93;;
34585;SDS011;20816;50.950;11.108;2023-03-03T05:33:09;13.43;;;5.80;;
34585;SDS011;20816;50.950;11.108;2023-03-03T05:35:39;19.10;;;6.73;;
34585;SDS011;20816;50.950;11.108;2023-03-03T05:40:53;11.13;;;5.07;;
34585;SDS011;20816;50.950;11.108;2023-03-03T05:43:20;23.17;;;7.60;;
34585;SDS011;20816;50.950;11.108;2023-03-03T05:46:10;17.00;;;5.03;;
34585;SDS011;20816;50.950;11.108;2023-03-03T05:48:36;17.00;;;6.90;;
34585;SDS011;20816;50.950;11.108;2023-03-03T05:51:03;17.53;;;4.53;;
34585;SDS011;20816;50.950;11.108;2023-03-03T05:53:39;9.30;;;5.33;;
34585;SDS011;20816;50.950;11.108;2023-03-03T05:56:06;12.63;;;5.17;;
34585;SDS011;20816;50.950;11.108;2023-03-03T05:58:32;20.63;;;6.33;;
34585;SDS011;20816;50.950;11.108;2023-03-03T06:00:59;16.57;;;6.03;;
34585;SDS011;20816;50.950;11.108;2023-03-03T06:03:26;7.07;;;4.23;;
34585;SDS011;20816;50.950;11.108;2023-03-03T06:05:58;14.47;;;6.50;;
34585;SDS011;20816;50.950;11.108;2023-03-03T06:08:25;20.20;;;5.73;;
34585;SDS011;20816;50.950;11.108;2023-03-03T06:10:51;13.07;;;4.33;;
34585;SDS011;20816;50.950;11.108;2023-03-03T06:13:18;12.50;;;5.47;;
34585;SDS011;20816;50.950;11.108;2023-03-03T06:15:45;20.70;;;6.87;;
34585;SDS011;20816;50.950;11.108;2023-03-03T06:18:24;12.33;;;5.30;;
34585;SDS011;20816;50.950;11.108;2023-03-03T06:20:52;14.10;;;5.17;;
34585;SDS011;20816;50.950;11.108;2023-03-03T06:23:19;17.53;;;5.37;;
34585;SDS011;20816;50.950;11.108;2023-03-03T06:25:46;17.47;;;6.53;;
34585;SDS011;20816;50.950;11.108;2023-03-03T06:28:19;15.77;;;5.50;;
34585;SDS011;20816;50.950;11.108;2023-03-03T06:30:46;10.47;;;5.43;;
34585;SDS011;20816;50.950;11.108;2023-03-03T06:33:12;17.57;;;5.47;;
34585;SDS011;20816;50.950;11.108;2023-03-03T06:35:39;16.67;;;5.07;;
34585;SDS011;20816;50.950;11.108;2023-03-03T06:38:05;6.97;;;3.97;;
34585;SDS011;20816;50.950;11.108;2023-03-03T06:40:34;11.63;;;5.00;;
34585;SDS011;20816;50.950;11.108;2023-03-03T06:43:10;13.97;;;4.33;;
34585;SDS011;20816;50.950;11.108;2023-03-03T06:45:37;13.73;;;5.67;;
34585;SDS011;20816;50.950;11.108;2023-03-03T06:48:04;12.47;;;5.67;;
34585;SDS011;20816;50.950;11.108;2023-03-03T06:50:31;8.93;;;3.57;;
34585;SDS011;20816;50.950;11.108;2023-03-03T06:53:16;9.60;;;4.90;;
34585;SDS011;20816;50.950;11.108;2023-03-03T06:55:43;10.93;;;5.07;;
34585;SDS011;20816;50.950;11.108;2023-03-03T06:58:12;14.07;;;4.93;;
34585;SDS011;20816;50.950;11.108;2023-03-03T07:00:55;15.17;;;4.30;;
34585;SDS011;20816;50.950;11.108;2023-03-03T07:03:24;9.87;;;3.77;;
34585;SDS011;20816;50.950;11.108;2023-03-03T07:06:00;10.67;;;4.70;;
34585;SDS011;20816;50.950;11.108;2023-03-03T07:08:34;6.10;;;3.80;;
34585;SDS011;20816;50.950;11.108;2023-03-03T07:11:06;13.63;;;5.43;;
34585;SDS011;20816;50.950;11.108;2023-03-03T07:13:51;7.07;;;4.43;;
34585;SDS011;20816;50.950;11.108;2023-03-03T07:16:23;10.27;;;3.47;;
34585;SDS011;20816;50.950;11.108;2023-03-03T07:18:53;8.03;;;3.60;;
34585;SDS011;20816;50.950;11.108;2023-03-03T07:24:00;11.60;;;4.63;;
34585;SDS011;20816;50.950;11.108;2023-03-03T07:26:41;10.20;;;4.03;;
34585;SDS011;20816;50.950;11.108;2023-03-03T07:29:21;6.47;;;3.93;;
34585;SDS011;20816;50.950;11.108;2023-03-03T07:31:52;10.50;;;4.63;;
34585;SDS011;20816;50.950;11.108;2023-03-03T07:34:43;9.10;;;3.33;;
34585;SDS011;20816;50.950;11.108;2023-03-03T07:37:33;7.13;;;3.77;;
34585;SDS011;20816;50.950;11.108;2023-03-03T07:40:50;9.47;;;3.40;;
34585;SDS011;20816;50.950;11.108;2023-03-03T07:42:54;9.70;;;4.67;;
34585;SDS011;20816;50.950;11.108;2023-03-03T07:45:22;5.47;;;2.90;;
34585;SDS011;20816;50.950;11.108;2023-03-03T07:47:59;7.40;;;3.13;;
34585;SDS011;20816;50.950;11.108;2023-03-03T07:50:34;7.10;;;3.77;;
34585;SDS011;20816;50.950;11.108;2023-03-03T07:53:01;8.77;;;4.10;;
34585;SDS011;20816;50.950;11.108;2023-03-03T08:04:00;7.33;;;3.07;;
34585;SDS011;20816;50.950;11.108;2023-03-03T08:12:01;4.57;;;2.77;;
34585;SDS011;20816;50.950;11.108;2023-03-03T08:14:43;8.70;;;3.90;;
34585;SDS011;20816;50.950;11.108;2023-03-03T08:17:21;6.57;;;2.60;;
34585;SDS011;20816;50.950;11.108;2023-03-03T08:19:49;6.83;;;2.47;;
34585;SDS011;20816;50.950;11.108;2023-03-03T08:22:19;7.40;;;3.13;;
34585;SDS011;20816;50.950;11.108;2023-03-03T08:24:56;7.07;;;2.83;;
34585;SDS011;20816;50.950;11.108;2023-03-03T08:27:23;7.93;;;3.03;;
34585;SDS011;20816;50.950;11.108;2023-03-03T08:29:49;6.13;;;2.67;;
34585;SDS011;20816;50.950;11.108;2023-03-03T08:32:16;4.30;;;2.30;;
34585;SDS011;20816;50.950;11.108;2023-03-03T08:34:43;5.50;;;3.53;;
34585;SDS011;20816;50.950;11.108;2023-03-03T08:37:09;4.33;;;2.33;;
34585;SDS011;20816;50.950;11.108;2023-03-03T08:39:36;6.97;;;2.80;;
34585;SDS011;20816;50.950;11.108;2023-03-03T08:42:03;3.80;;;1.80;;
34585;SDS011;20816;50.950;11.108;2023-03-03T08:44:30;6.23;;;2.83;;
34585;SDS011;20816;50.950;11.108;2023-03-03T08:46:56;6.60;;;2.43;;
34585;SDS011;20816;50.950;11.108;2023-03-03T08:49:23;4.63;;;2.57;;
34585;SDS011;20816;50.950;11.108;2023-03-03T08:51:50;4.53;;;2.47;;
34585;SDS011;20816;50.950;11.108;2023-03-03T08:54:17;5.20;;;2.60;;
34585;SDS011;20816;50.950;11.108;2023-03-03T08:56:44;4.70;;;2.17;;
34585;SDS011;20816;50.950;11.108;2023-03-03T08:59:11;4.33;;;2.10;;
34585;SDS011;20816;50.950;11.108;2023-03-03T09:01:38;5.20;;;2.40;;
34585;SDS011;20816;50.950;11.108;2023-03-03T09:04:07;12.33;;;2.67;;
34585;SDS011;20816;50.950;11.108;2023-03-03T09:06:33;7.67;;;2.23;;
34585;SDS011;20816;50.950;11.108;2023-03-03T09:09:00;4.30;;;2.63;;
34585;SDS011;20816;50.950;11.108;2023-03-03T09:11:27;4.40;;;2.87;;
34585;SDS011;20816;50.950;11.108;2023-03-03T09:13:58;2.27;;;1.87;;
34585;SDS011;20816;50.950;11.108;2023-03-03T09:16:34;3.33;;;2.00;;
34585;SDS011;20816;50.950;11.108;2023-03-03T09:19:18;8.10;;;2.83;;
34585;SDS011;20816;50.950;11.108;2023-03-03T09:22:00;5.27;;;2.17;;
34585;SDS011;20816;50.950;11.108;2023-03-03T09:24:37;5.03;;;2.53;;
34585;SDS011;20816;50.950;11.108;2023-03-03T09:27:06;7.50;;;3.37;;
34585;SDS011;20816;50.950;11.108;2023-03-03T09:29:43;6.53;;;2.77;;
34585;SDS011;20816;50.950;11.108;2023-03-03T09:32:34;5.82;;;2.35;;
34585;SDS011;20816;50.950;11.108;2023-03-03T09:38:17;4.00;;;2.20;;
34585;SDS011;20816;50.950;11.108;2023-03-03T09:46:28;4.30;;;2.00;;
34585;SDS011;20816;50.950;11.108;2023-03-03T09:49:30;5.40;;;1.70;;
34585;SDS011;20816;50.950;11.108;2023-03-03T09:52:08;4.90;;;3.10;;
34585;SDS011;20816;50.950;11.108;2023-03-03T09:54:45;2.93;;;2.30;;
34585;SDS011;20816;50.950;11.108;2023-03-03T09:57:23;2.90;;;1.83;;
34585;SDS011;20816;50.950;11.108;2023-03-03T10:00:13;4.70;;;1.73;;
34585;SDS011;20816;50.950;11.108;2023-03-03T10:03:02;2.40;;;1.70;;
34585;SDS011;20816;50.950;11.108;2023-03-03T10:05:48;3.27;;;2.00;;
34585;SDS011;20816;50.950;11.108;2023-03-03T10:08:26;5.73;;;2.70;;
34585;SDS011;20816;50.950;11.108;2023-03-03T10:16:53;2.67;;;2.10;;
34585;SDS011;20816;50.950;11.108;2023-03-03T10:27:46;4.13;;;2.03;;
34585;SDS011;20816;50.950;11.108;2023-03-03T10:44:55;3.67;;;1.63;;
34585;SDS011;20816;50.950;11.108;2023-03-03T10:55:59;5.90;;;2.30;;
34585;SDS011;20816;50.950;11.108;2023-03-03T11:01:19;5.20;;;1.30;;
34585;SDS011;20816;50.950;11.108;2023-03-03T11:04:01;4.13;;;1.73;;
34585;SDS011;20816;50.950;11.108;2023-03-03T11:07:11;6.03;;;2.37;;
34585;SDS011;20816;50.950;11.108;2023-03-03T11:09:46;3.33;;;1.50;;
34585;SDS011;20816;50.950;11.108;2023-03-03T11:20:51;4.07;;;2.30;;
34585;SDS011;20816;50.950;11.108;2023-03-03T11:26:37;3.27;;;1.60;;
34585;SDS011;20816;50.950;11.108;2023-03-03T11:32:02;4.60;;;1.70;;
34585;SDS011;20816;50.950;11.108;2023-03-03T11:40:24;3.30;;;1.93;;
34585;SDS011;20816;50.950;11.108;2023-03-03T11:43:14;4.73;;;2.17;;
34585;SDS011;20816;50.950;11.108;2023-03-03T11:46:05;2.77;;;1.63;;
34585;SDS011;20816;50.950;11.108;2023-03-03T11:48:37;3.77;;;1.77;;
34585;SDS011;20816;50.950;11.108;2023-03-03T11:51:13;3.80;;;2.00;;
34585;SDS011;20816;50.950;11.108;2023-03-03T11:56:29;3.77;;;1.83;;
34585;SDS011;20816;50.950;11.108;2023-03-03T11:59:04;4.30;;;1.93;;
34585;SDS011;20816;50.950;11.108;2023-03-03T12:04:38;2.93;;;1.67;;
34585;SDS011;20816;50.950;11.108;2023-03-03T12:12:43;5.23;;;2.63;;
34585;SDS011;20816;50.950;11.108;2023-03-03T12:20:31;3.20;;;2.20;;
34585;SDS011;20816;50.950;11.108;2023-03-03T12:25:42;3.67;;;1.87;;
34585;SDS011;20816;50.950;11.108;2023-03-03T12:28:23;3.67;;;1.77;;
34585;SDS011;20816;50.950;11.108;2023-03-03T12:39:39;2.53;;;1.67;;
34585;SDS011;20816;50.950;11.108;2023-03-03T12:42:11;2.87;;;2.07;;
34585;SDS011;20816;50.950;11.108;2023-03-03T12:44:43;5.20;;;2.10;;
34585;SDS011;20816;50.950;11.108;2023-03-03T12:47:18;5.37;;;1.70;;
34585;SDS011;20816;50.950;11.108;2023-03-03T12:52:50;2.60;;;1.47;;
34585;SDS011;20816;50.950;11.108;2023-03-03T13:09:30;2.97;;;2.03;;
34585;SDS011;20816;50.950;11.108;2023-03-03T13:13:14;2.87;;;2.17;;
34585;SDS011;20816;50.950;11.108;2023-03-03T13:15:12;2.80;;;1.90;;
34585;SDS011;20816;50.950;11.108;2023-03-03T13:26:48;2.20;;;1.47;;
34585;SDS011;20816;50.950;11.108;2023-03-03T13:29:19;4.20;;;2.27;;
34585;SDS011;20816;50.950;11.108;2023-03-03T13:31:59;3.10;;;1.80;;
34585;SDS011;20816;50.950;11.108;2023-03-03T13:39:41;3.57;;;2.17;;
34585;SDS011;20816;50.950;11.108;2023-03-03T13:46:02;5.23;;;2.57;;
34585;SDS011;20816;50.950;11.108;2023-03-03T13:48:27;4.93;;;2.20;;
34585;SDS011;20816;50.950;11.108;2023-03-03T13:54:33;3.47;;;1.47;;
34585;SDS011;20816;50.950;11.108;2023-03-03T13:57:35;3.30;;;1.93;;
34585;SDS011;20816;50.950;11.108;2023-03-03T14:00:29;3.27;;;2.00;;
34585;SDS011;20816;50.950;11.108;2023-03-03T14:06:02;2.67;;;2.10;;
34585;SDS011;20816;50.950;11.108;2023-03-03T14:09:03;4.53;;;2.47;;
34585;SDS011;20816;50.950;11.108;2023-03-03T14:11:49;4.17;;;2.03;;
34585;SDS011;20816;50.950;11.108;2023-03-03T14:22:54;4.93;;;2.00;;
34585;SDS011;20816;50.950;11.108;2023-03-03T14:25:24;3.23;;;1.73;;
34585;SDS011;20816;50.950;11.108;2023-03-03T14:27:54;4.60;;;2.13;;
34585;SDS011;20816;50.950;11.108;2023-03-03T14:33:15;3.50;;;1.53;;
34585;SDS011;20816;50.950;11.108;2023-03-03T14:38:34;3.30;;;2.10;;
34585;SDS011;20816;50.950;11.108;2023-03-03T14:41:09;5.37;;;2.03;;
34585;SDS011;20816;50.950;11.108;2023-03-03T14:43:41;6.63;;;2.13;;
34585;SDS011;20816;50.950;11.108;2023-03-03T14:49:15;3.63;;;1.70;;
34585;SDS011;20816;50.950;11.108;2023-03-03T14:52:00;2.80;;;1.70;;
34585;SDS011;20816;50.950;11.108;2023-03-03T14:54:33;4.63;;;2.37;;
34585;SDS011;20816;50.950;11.108;2023-03-03T14:57:12;4.50;;;2.63;;
34585;SDS011;20816;50.950;11.108;2023-03-03T14:59:55;4.10;;;2.23;;
34585;SDS011;20816;50.950;11.108;2023-03-03T15:02:34;2.80;;;2.13;;
34585;SDS011;20816;50.950;11.108;2023-03-03T15:07:50;4.80;;;2.43;;
34585;SDS011;20816;50.950;11.108;2023-03-03T15:15:50;3.53;;;1.67;;
34585;SDS011;20816;50.950;11.108;2023-03-03T15:18:26;6.87;;;3.03;;
34585;SDS011;20816;50.950;11.108;2023-03-03T15:20:57;5.67;;;2.17;;
34585;SDS011;20816;50.950;11.108;2023-03-03T15:34:36;4.43;;;2.67;;
34585;SDS011;20816;50.950;11.108;2023-03-03T15:42:47;6.03;;;2.80;;
34585;SDS011;20816;50.950;11.108;2023-03-03T15:48:10;5.33;;;2.87;;
34585;SDS011;20816;50.950;11.108;2023-03-03T15:50:44;4.93;;;2.80;;
34585;SDS011;20816;50.950;11.108;2023-03-03T15:55:54;5.90;;;2.77;;
34585;SDS011;20816;50.950;11.108;2023-03-03T15:58:46;4.73;;;2.90;;
34585;SDS011;20816;50.950;11.108;2023-03-03T16:01:34;5.60;;;1.90;;
34585;SDS011;20816;50.950;11.108;2023-03-03T16:04:08;4.50;;;2.20;;
34585;SDS011;20816;50.950;11.108;2023-03-03T16:09:35;4.13;;;2.90;;
34585;SDS011;20816;50.950;11.108;2023-03-03T16:12:24;5.60;;;2.00;;
34585;SDS011;20816;50.950;11.108;2023-03-03T16:20:32;3.50;;;1.77;;
34585;SDS011;20816;50.950;11.108;2023-03-03T16:23:35;6.10;;;2.90;;
34585;SDS011;20816;50.950;11.108;2023-03-03T16:32:10;4.57;;;2.37;;
34585;SDS011;20816;50.950;11.108;2023-03-03T16:42:28;3.97;;;2.67;;
34585;SDS011;20816;50.950;11.108;2023-03-03T16:45:00;6.30;;;3.10;;
34585;SDS011;20816;50.950;11.108;2023-03-03T16:50:38;4.33;;;2.60;;
34585;SDS011;20816;50.950;11.108;2023-03-03T16:53:16;3.13;;;2.47;;
34585;SDS011;20816;50.950;11.108;2023-03-03T16:55:47;4.13;;;2.37;;
34585;SDS011;20816;50.950;11.108;2023-03-03T17:03:47;4.70;;;2.80;;
34585;SDS011;20816;50.950;11.108;2023-03-03T17:17:51;10.23;;;4.07;;
34585;SDS011;20816;50.950;11.108;2023-03-03T17:23:33;5.07;;;2.80;;
34585;SDS011;20816;50.950;11.108;2023-03-03T17:36:56;3.83;;;2.23;;
34585;SDS011;20816;50.950;11.108;2023-03-03T17:42:48;3.93;;;2.03;;
34585;SDS011;20816;50.950;11.108;2023-03-03T17:45:32;3.33;;;2.30;;
34585;SDS011;20816;50.950;11.108;2023-03-03T17:50:49;5.73;;;3.60;;
34585;SDS011;20816;50.950;11.108;2023-03-03T17:56:44;4.53;;;2.67;;
34585;SDS011;20816;50.950;11.108;2023-03-03T17:59:34;7.97;;;3.17;;
34585;SDS011;20816;50.950;11.108;2023-03-03T18:07:53;5.07;;;2.77;;
34585;SDS011;20816;50.950;11.108;2023-03-03T18:18:41;5.57;;;3.53;;
34585;SDS011;20816;50.950;11.108;2023-03-03T18:24:13;7.70;;;3.70;;
34585;SDS011;20816;50.950;11.108;2023-03-03T18:26:51;6.53;;;3.57;;
34585;SDS011;20816;50.950;11.108;2023-03-03T18:29:25;5.60;;;3.63;;
34585;SDS011;20816;50.950;11.108;2023-03-03T18:34:38;5.90;;;2.97;;
34585;SDS011;20816;50.950;11.108;2023-03-03T18:50:38;6.37;;;3.40;;
34585;SDS011;20816;50.950;11.108;2023-03-03T18:55:50;3.13;;;2.30;;
34585;SDS011;20816;50.950;11.108;2023-03-03T19:00:47;4.70;;;2.83;;
34585;SDS011;20816;50.950;11.108;2023-03-03T19:05:58;8.00;;;2.83;;
34585;SDS011;20816;50.950;11.108;2023-03-03T19:10:57;5.60;;;3.17;;
34585;SDS011;20816;50.950;11.108;2023-03-03T19:16:05;4.07;;;2.90;;
34585;SDS011;20816;50.950;11.108;2023-03-03T19:21:18;6.00;;;3.30;;
34585;SDS011;20816;50.950;11.108;2023-03-03T19:32:09;7.13;;;2.93;;
34585;SDS011;20816;50.950;11.108;2023-03-03T19:37:33;4.43;;;2.43;;
34585;SDS011;20816;50.950;11.108;2023-03-03T19:42:51;8.27;;;2.67;;
34585;SDS011;20816;50.950;11.108;2023-03-03T19:48:47;4.77;;;2.83;;
34585;SDS011;20816;50.950;11.108;2023-03-03T19:57:18;5.83;;;2.43;;
34585;SDS011;20816;50.950;11.108;2023-03-03T19:59:51;6.33;;;2.57;;
34585;SDS011;20816;50.950;11.108;2023-03-03T20:02:40;3.50;;;2.13;;
34585;SDS011;20816;50.950;11.108;2023-03-03T20:08:33;6.77;;;2.67;;
34585;SDS011;20816;50.950;11.108;2023-03-03T20:11:14;5.17;;;2.60;;
34585;SDS011;20816;50.950;11.108;2023-03-03T20:16:41;3.03;;;2.40;;
34585;SDS011;20816;50.950;11.108;2023-03-03T20:27:19;4.80;;;2.30;;
34585;SDS011;20816;50.950;11.108;2023-03-03T20:33:42;4.13;;;2.57;;
34585;SDS011;20816;50.950;11.108;2023-03-03T20:39:05;5.70;;;2.70;;
34585;SDS011;20816;50.950;11.108;2023-03-03T20:49:22;2.97;;;2.30;;
34585;SDS011;20816;50.950;11.108;2023-03-03T20:52:04;6.13;;;3.27;;
34585;SDS011;20816;50.950;11.108;2023-03-03T20:57:52;4.33;;;2.37;;
34585;SDS011;20816;50.950;11.108;2023-03-03T21:05:54;7.57;;;3.13;;
34585;SDS011;20816;50.950;11.108;2023-03-03T21:08:42;5.37;;;3.10;;
34585;SDS011;20816;50.950;11.108;2023-03-03T21:11:10;10.50;;;3.73;;
34585;SDS011;20816;50.950;11.108;2023-03-03T21:13:40;11.23;;;3.30;;
34585;SDS011;20816;50.950;11.108;2023-03-03T21:19:00;5.27;;;3.40;;
34585;SDS011;20816;50.950;11.108;2023-03-03T21:21:32;4.77;;;2.90;;
34585;SDS011;20816;50.950;11.108;2023-03-03T21:24:03;5.40;;;3.93;;
34585;SDS011;20816;50.950;11.108;2023-03-03T21:29:20;8.13;;;3.93;;
34585;SDS011;20816;50.950;11.108;2023-03-03T21:31:48;5.57;;;3.43;;
34585;SDS011;20816;50.950;11.108;2023-03-03T21:34:24;8.13;;;4.37;;
34585;SDS011;20816;50.950;11.108;2023-03-03T21:36:52;8.77;;;3.80;;
34585;SDS011;20816;50.950;11.108;2023-03-03T21:42:07;11.43;;;4.93;;